createdAt,value
2022-10-18T00:26:29.598Z,0
2022-10-18T00:46:30.211Z,0
2022-10-18T00:56:38.125Z,0
2022-10-18T01:06:32.142Z,0
2022-10-18T01:16:32.232Z,0
2022-10-18T01:26:32.928Z,0
2022-10-18T01:36:33.066Z,0
2022-10-18T01:46:33.493Z,0
2022-10-18T01:56:34.479Z,0
2022-10-18T02:06:34.603Z,0
2022-10-18T03:06:36.928Z,0
2022-10-18T03:46:38.898Z,0
2022-10-18T03:56:39.626Z,0
2022-10-18T04:06:39.754Z,0
2022-10-18T04:16:40.762Z,0
2022-10-18T04:26:41.521Z,0
2022-10-18T04:46:43.013Z,0
2022-10-18T04:56:43.432Z,0
2022-10-18T05:06:43.634Z,0
2022-10-18T05:16:43.992Z,0
2022-10-18T05:26:44.499Z,0
2022-10-18T05:36:44.533Z,0
2022-10-18T05:46:44.592Z,0
2022-10-18T05:56:51.704Z,0
2022-10-18T06:06:52.041Z,0
2022-10-18T06:16:52.329Z,0
2022-10-18T06:26:46.200Z,0
2022-10-18T06:36:56.322Z,0
2022-10-18T06:46:54.061Z,0
2022-10-18T06:56:47.895Z,0
2022-10-18T07:06:48.627Z,0
2022-10-18T07:16:48.788Z,0
2022-10-18T07:36:49.942Z,0
2022-10-18T07:46:57.669Z,0
2022-10-18T07:56:58.581Z,0
2022-10-18T08:06:59.494Z,0
2022-10-18T08:16:59.613Z,0
2022-10-18T08:26:53.027Z,0
2022-10-18T08:36:53.911Z,0
2022-10-18T08:46:54.236Z,0
2022-10-18T08:56:54.937Z,0
2022-10-18T09:06:55.553Z,0
2022-10-18T09:17:02.642Z,0
2022-10-18T09:26:56.128Z,0
2022-10-18T09:37:04.084Z,0
2022-10-18T09:46:58.057Z,0
2022-10-18T09:56:58.325Z,0
2022-10-18T10:07:06.016Z,0
2022-10-18T10:57:02.091Z,0
2022-10-18T11:37:26.969Z,0
2022-10-18T11:57:05.519Z,0
2022-10-18T12:17:39.184Z,0
2022-10-18T12:57:08.544Z,0
2022-10-18T13:17:09.471Z,0
2022-10-18T13:27:24.263Z,0
2022-10-18T13:37:10.426Z,18
2022-10-18T13:57:11.352Z,78
2022-10-18T14:27:13.822Z,89
2022-10-18T15:07:15.675Z,91
2022-10-18T15:17:16.320Z,89
2022-10-18T15:37:18.120Z,85
2022-10-18T15:47:19.020Z,82
2022-10-18T15:57:19.237Z,80
2022-10-18T16:07:19.273Z,63
2022-10-18T16:17:19.993Z,39
2022-10-18T16:27:27.100Z,10
2022-10-18T16:47:21.085Z,0
2022-10-18T16:57:33.611Z,0
2022-10-18T17:07:33.833Z,0
2022-10-18T17:17:27.040Z,0
2022-10-18T17:27:27.614Z,0
2022-10-18T17:47:35.854Z,0
2022-10-18T17:57:29.897Z,0
2022-10-18T18:07:30.660Z,0
2022-10-18T18:17:34.288Z,0
2022-10-18T18:27:38.606Z,0
2022-10-18T18:37:32.557Z,0
2022-10-18T18:57:41.164Z,0
2022-10-18T19:07:41.518Z,0
2022-10-18T19:17:35.708Z,0
2022-10-18T19:27:36.284Z,0
2022-10-18T19:37:43.717Z,0
2022-10-18T20:07:44.795Z,0
2022-10-18T20:17:38.485Z,0
2022-10-18T20:37:39.350Z,0
2022-10-18T20:47:46.511Z,0
2022-10-18T20:57:39.933Z,0
2022-10-18T21:07:40.320Z,0
2022-10-18T21:17:40.839Z,0
2022-10-18T21:27:48.598Z,0
2022-10-18T21:37:41.944Z,0
2022-10-18T22:07:42.780Z,0
2022-10-18T22:17:43.351Z,0
2022-10-18T22:27:57.479Z,0
2022-10-18T22:37:43.625Z,0
2022-10-18T22:57:51.723Z,0
2022-10-18T23:07:44.937Z,0
2022-10-18T23:17:45.770Z,0
2022-10-18T23:27:46.130Z,0
2022-10-18T23:37:53.325Z,0
2022-10-18T23:47:46.795Z,0
